Prairie Lea, Texas
Current Conditions -  °F | °C
As of 4:45 PM on Monday 22 Dec 2014 (Local Time) from KHYI Reporting Station
Clear Clear  
Wind Chill: 66°   Ceiling: Unl
Heat Index: 66°   Visibility: 10mi
Dew Point: 54°   Wind: 8mph
Humidity: 64%   Direction: 200°SSW
Pressure: 29.62"   Gusts: NA
Location:  29.73°N, 97.75°W
Report Text: KHYI 222245Z 20007KT 10SM CLR 19/12 A2962
Loading
Personal Weather Stations






























Interactive Weather Map New forecast layout! Learn more

10-Day Weather Forecast

Advertisements
Track Severe Weather on mobile